Nearby METAR Reports

 

KAVP - Avoca/Wilkes B., Pennsylvania, USA
Distance from station: SW 13mi, 22km
Updated: Fri, 28-Feb-2020 00:54 EST
Few Clouds
Few Clouds
 Wind from WSW
Wind: WSW 16 mph , 26 km/h, Gust: 29 mph , 46 km/h
Temperature: 25°F , -4°C
Wind Chill: 12°F , -11°C
Dew Point: 12°F , -11°C
Humidity: 59%
Barometer: 29.76 inHg , 1007.8 hPa
Clouds: Few Clouds
Visibility: 10 miles , 16 km
Cloud details: Few Clouds 1000 ft
Few Clouds 4900 ft
2020/02/28 05:54 KAVP 280554Z 25014G25KT 10SM FEW010 FEW049 M04/M11 A2976 RMK AO2 PK WND 25030/0520 SNB11E41 SLP086 P0000 60000 T10391106 11022 21044 55000
KMPO - Mt. Pocono, Pennsylvania, USA
Distance from station: SSE 26mi, 43km
Updated: Fri, 28-Feb-2020 00:53 EST
Few Clouds
Few Clouds
 Wind from W
Wind: W 28 mph , 44 km/h, Gust: 41 mph , 67 km/h
Temperature: 19°F , -7°C
Wind Chill: 0°F , -18°C
Dew Point: 10°F , -12°C
Humidity: 68%
Barometer: 29.69 inHg , 1005.4 hPa
Clouds: Few Clouds
Visibility: 10 miles , 16 km
Cloud details: Few Clouds 3100 ft
2020/02/28 05:53 KMPO 280553Z AUTO 26024G36KT 10SM FEW031 M07/M12 A2969 RMK AO2 PK WND 25036/0544 SNE01 SLP078 P0000 60000 T10671122 11056 21067 55000
 
KMSV - Monticello, New York, USA
Distance from station: ENE 43mi, 69km
Updated: Fri, 28-Feb-2020 00:56 EST
Light snow, Mostly cloudy
Light snow, Mostly cloudy
 Wind from W
Wind: W 18 mph , 30 km/h, Gust: 25 mph , 41 km/h
Temperature: 21°F , -6°C
Wind Chill: 6°F , -14°C
Dew Point: 12°F , -11°C
Humidity: 68%
Barometer: 29.69 inHg , 1005.4 hPa
Summary: Light Snow
Clouds: Mostly cloudy
Visibility: 9 miles , 14 km
Cloud details: Few Clouds 4100 ft
Mostly cloudy 5500 ft
2020/02/28 05:56 KMSV 280556Z AUTO 26016G22KT 9SM -SN FEW041 BKN055 M06/M11 A2969 RMK AO2 SNB51 SLP072 P0000 60000 T10611106 11044 21061 53003 FZRANO
KFWN - Sussex, New Jersey, USA
Distance from station: ESE 52mi, 84km
Updated: Fri, 28-Feb-2020 00:53 EST
Partly cloudy
Partly cloudy
 Wind from WSW
Wind: WSW 9 mph , 15 km/h, Gust: 22 mph , 35 km/h
Temperature: 28°F , -2°C
Wind Chill: 19°F , -7°C
Dew Point: 10°F , -12°C
Humidity: 47%
Barometer: 29.77 inHg , 1008.1 hPa
Clouds: Partly cloudy
Visibility: 10 miles , 16 km
Cloud details: Few Clouds 4400 ft
Partly cloudy 5500 ft
2020/02/28 05:53 KFWN 280553Z AUTO 24008G19KT 200V270 10SM FEW044 SCT055 M02/M12 A2977 RMK AO2 SLP084 60000 T10221122 11006 21022 56001
 
K12N - Andover, New Jersey, USA
Distance from station: SE 54mi, 87km
Updated: Fri, 28-Feb-2020 00:54 EST

 Wind from varies
Wind: varies 7 mph , 11 km/h
Temperature: 27°F , -3°C
Wind Chill: 19°F , -7°C
Dew Point: 12°F , -11°C
Humidity: 54%
Barometer: 29.79 inHg , 1008.8 hPa
2020/02/28 05:54 K12N 280554Z AUTO VRB06KT M03/M11 A2979 RMK AO1 SLP098 T10281111 11011 21028 50001
KBGM - Binghamton, New York, USA
Distance from station: NNW 55mi, 88km
Updated: Fri, 28-Feb-2020 00:53 EST
Overcast
Overcast
 Wind from W
Wind: W 15 mph , 24 km/h, Gust: 30 mph , 48 km/h
Temperature: 19°F , -7°C
Wind Chill: 5°F , -15°C
Dew Point: 7°F , -14°C
Humidity: 58%
Barometer: 29.66 inHg , 1004.4 hPa
Clouds: Overcast
Visibility: 10 miles , 16 km
Cloud details: Mostly cloudy 4100 ft
Overcast 5000 ft
2020/02/28 05:53 KBGM 280553Z AUTO 27013G26KT 10SM BKN041 OVC050 M07/M14 A2966 RMK AO2 PK WND 29034/0536 SLP064 60000 T10721139 11056 21072 53004
 
KABE - Allentown, Pennsylvania, USA
Distance from station: S 58mi, 94km
Updated: Fri, 28-Feb-2020 00:51 EST
Overcast
Overcast
 Wind from WSW
Wind: WSW 16 mph , 26 km/h, Gust: 22 mph , 35 km/h
Temperature: 30°F , -1°C
Wind Chill: 19°F , -7°C
Dew Point: 12°F , -11°C
Humidity: 47%
Barometer: 29.83 inHg , 1010.2 hPa
Clouds: Overcast
Visibility: 10 miles , 16 km
Cloud details: Overcast 4800 ft
2020/02/28 05:51 KABE 280551Z 25014G19KT 10SM OVC048 M01/M11 A2983 RMK AO2 SLP105 60000 T10111106 10000 21017 56004
KXLL - Allentown Queen, Pennsylvania, USA
Distance from station: S 64mi, 103km
Updated: Fri, 28-Feb-2020 00:55 EST
Clear
Clear
 Wind from WSW
Wind: WSW 14 mph , 22 km/h, Gust: 30 mph , 48 km/h
Temperature: 30°F , -1°C
Wind Chill: 19°F , -7°C
Dew Point: 18°F , -8°C
Humidity: 59%
Barometer: 29.86 inHg , 1011.2 hPa
Clouds: Clear
Visibility: 10 miles , 16 km
2020/02/28 05:55 KXLL 280555Z AUTO 25012G26KT 10SM CLR M01/M08 A2986 RMK AO2
 
KMGJ - Montgomery, New York, USA
Distance from station: E 67mi, 108km
Updated: Fri, 28-Feb-2020 00:54 EST
Overcast
Overcast
 Wind from W
Wind: W 10 mph , 17 km/h, Gust: 25 mph , 41 km/h
Temperature: 27°F , -3°C
Wind Chill: 18°F , -8°C
Dew Point: 12°F , -11°C
Humidity: 54%
Barometer: 29.75 inHg , 1007.5 hPa
Clouds: Overcast
Visibility: 10 miles , 16 km
Cloud details: Mostly cloudy 4900 ft
Overcast 6500 ft
2020/02/28 05:54 KMGJ 280554Z AUTO 27009G22KT 10SM BKN049 OVC065 M03/M11 A2975 RMK AO2 SLP077 60000 T10281111 11011 21028 53004
KIPT - Williamsport, Pennsylvania, USA
Distance from station: WSW 72mi, 116km
Updated: Fri, 28-Feb-2020 00:54 EST
Overcast
Overcast
 Wind from WNW
Wind: WNW 13 mph , 20 km/h
Temperature: 27°F , -3°C
Wind Chill: 16°F , -9°C
Dew Point: 14°F , -10°C
Humidity: 59%
Barometer: 29.82 inHg , 1009.8 hPa
Clouds: Overcast
Visibility: 10 miles , 16 km
Cloud details: Partly cloudy 4200 ft
Overcast 5000 ft
2020/02/28 05:54 KIPT 280554Z AUTO 29011KT 10SM SCT042 OVC050 M03/M10 A2982 RMK AO2 PK WND 26027/0534 SNE46 SLP103 P0000 60000 T10331100 11017 21039 50002
 
KUKT - Quakertown Arp, Pennsylvania, USA
Distance from station: S 74mi, 119km
Updated: Fri, 28-Feb-2020 00:55 EST
Mostly cloudy
Mostly cloudy
 Wind from SW
Wind: SW 8 mph , 13 km/h
Temperature: 28°F , -2°C
Wind Chill: 20°F , -7°C
Dew Point: 12°F , -11°C
Humidity: 51%
Barometer: 29.85 inHg , 1010.8 hPa
Clouds: Mostly cloudy
Visibility: 10 miles , 16 km
Cloud details: Mostly cloudy 5000 ft
2020/02/28 05:55 KUKT 280555Z AUTO 22007KT 190V250 10SM BKN050 M02/M11 A2985 RMK A01
KSMQ - Somerville, New Jersey, USA
Distance from station: SE 76mi, 123km
Updated: Fri, 28-Feb-2020 00:53 EST
Partly cloudy
Partly cloudy
 Wind from W
Wind: W 9 mph , 15 km/h, Gust: 17 mph , 28 km/h
Temperature: 30°F , -1°C
Wind Chill: 22°F , -6°C
Dew Point: 12°F , -11°C
Humidity: 47%
Barometer: 29.83 inHg , 1010.2 hPa
Clouds: Partly cloudy
Visibility: 10 miles , 16 km
Cloud details: Partly cloudy 7000 ft
2020/02/28 05:53 KSMQ 280553Z AUTO 26008G15KT 200V300 10SM SCT070 M01/M11 A2983 RMK AO2 SLP104 T10111111 10006 21011 50000
 
KSWF - Newburgh/Stewart, New York, USA
Distance from station: E 77mi, 123km
Updated: Fri, 28-Feb-2020 00:45 EST
Partly cloudy
Partly cloudy
 Wind from WSW
Wind: WSW 9 mph , 15 km/h, Gust: 18 mph , 30 km/h
Temperature: 27°F , -3°C
Wind Chill: 18°F , -8°C
Dew Point: 14°F , -10°C
Humidity: 59%
Barometer: 29.76 inHg , 1007.8 hPa
Clouds: Partly cloudy
Visibility: 10 miles , 16 km
Cloud details: Partly cloudy 6000 ft
2020/02/28 05:45 KSWF 280545Z 25008G16KT 10SM SCT060 M03/M10 A2976
KMMU - Morristown Muni, New Jersey, USA
Distance from station: SE 77mi, 124km
Updated: Fri, 28-Feb-2020 00:55 EST
Partly cloudy
Partly cloudy
 Wind from WSW
Wind: WSW 14 mph , 22 km/h, Gust: 23 mph , 37 km/h
Temperature: 30°F , -1°C
Wind Chill: 19°F , -7°C
Dew Point: 12°F , -11°C
Humidity: 47%
Barometer: 29.82 inHg , 1009.8 hPa
Clouds: Partly cloudy
Visibility: 10 miles , 16 km
Cloud details: Partly cloudy 5000 ft
2020/02/28 05:55 KMMU 280555Z AUTO 25012G20KT 10SM SCT050 M01/M11 A2982 RMK AO2
 
KCDW - Caldwell, New Jersey, USA
Distance from station: ESE 79mi, 127km
Updated: Fri, 28-Feb-2020 00:53 EST
Few Clouds
Few Clouds
 Wind from W
Wind: W 7 mph , 11 km/h
Temperature: 30°F , -1°C
Wind Chill: 23°F , -5°C
Dew Point: 10°F , -12°C
Humidity: 43%
Barometer: 29.82 inHg , 1009.8 hPa
Clouds: Few Clouds
Visibility: 10 miles , 16 km
Cloud details: Few Clouds 5500 ft
2020/02/28 05:53 KCDW 280553Z 28006KT 10SM FEW055 M01/M12 A2982 RMK AO2 SLP106 T10061122 10011 21006 50005
KRDG - Reading, Pennsylvania, USA
Distance from station: SSW 80mi, 130km
Updated: Fri, 28-Feb-2020 00:54 EST
Mostly cloudy
Mostly cloudy
 Wind from W
Wind: W 25 mph , 41 km/h, Gust: 37 mph , 59 km/h
Temperature: 30°F , -1°C
Wind Chill: 16°F , -9°C
Dew Point: 14°F , -10°C
Humidity: 51%
Barometer: 29.87 inHg , 1011.5 hPa
Clouds: Mostly cloudy
Visibility: 10 miles , 16 km
Cloud details: Partly cloudy 4700 ft
Mostly cloudy 6000 ft
2020/02/28 05:54 KRDG 280554Z AUTO 28022G32KT 10SM SCT047 BKN060 M01/M10 A2987 RMK AO2 PK WND 27035/0538 SLP122 60000 T10111100 10000 21017 53000
 
KITH - Ithaca/Tompkins, New York, USA
Distance from station: NW 81mi, 131km
Updated: Fri, 28-Feb-2020 00:56 EST
Mostly cloudy
Mostly cloudy
 Wind from W
Wind: W 15 mph , 24 km/h, Gust: 23 mph , 37 km/h
Temperature: 21°F , -6°C
Wind Chill: 7°F , -14°C
Dew Point: 10°F , -12°C
Humidity: 63%
Barometer: 29.69 inHg , 1005.4 hPa
Clouds: Mostly cloudy
Visibility: 10 miles , 16 km
Cloud details: Mostly cloudy 4400 ft
2020/02/28 05:56 KITH 280556Z AUTO 26013G20KT 10SM BKN044 M06/M12 A2969 RMK AO2 SLP070 60000 T10611122 11050 21067 53001
KSEG - Selinsgrove, Pennsylvania, USA
Distance from station: SW 82mi, 132km
Updated: Fri, 28-Feb-2020 00:53 EST
Few Clouds
Few Clouds
 Wind from varies
Wind: varies 7 mph , 11 km/h, Gust: 24 mph , 39 km/h
Temperature: 27°F , -3°C
Wind Chill: 19°F , -7°C
Dew Point: 12°F , -11°C
Humidity: 54%
Barometer: 29.87 inHg , 1011.5 hPa
Clouds: Few Clouds
Visibility: 10 miles , 16 km
Cloud details: Few Clouds 5500 ft
2020/02/28 05:53 KSEG 280553Z AUTO VRB06G21KT 10SM FEW055 M03/M11 A2987 RMK AO2 SNE07 SLP121 P0000 60000 T10281111 11017 21033 53003
 
KELM - Elmira, New York, USA
Distance from station: WNW 82mi, 133km
Updated: Fri, 28-Feb-2020 01:05 EST
Light snow, Mostly cloudy
Light snow, Mostly cloudy
 Wind from W
Wind: W 20 mph , 31 km/h, Gust: 29 mph , 46 km/h
Temperature: 21°F , -6°C
Wind Chill: 6°F , -14°C
Dew Point: 14°F , -10°C
Humidity: 74%
Barometer: 29.73 inHg , 1006.8 hPa
Summary: Light Snow
Clouds: Mostly cloudy
Visibility: 3 miles , 5 km
Cloud details: Mostly cloudy 3100 ft
Mostly cloudy 4500 ft
2020/02/28 06:05 KELM 280605Z AUTO 26017G25KT 3SM -SN BKN031 BKN045 M06/M10 A2973 RMK AO2 P0000 T10561100
KDYL - Doylestown, Pennsylvania, USA
Distance from station: SSE 83mi, 134km
Updated: Fri, 28-Feb-2020 00:54 EST
Few Clouds
Few Clouds
 Wind from SW
Wind: SW 8 mph , 13 km/h
Temperature: 28°F , -2°C
Wind Chill: 20°F , -7°C
Dew Point: 10°F , -12°C
Humidity: 47%
Barometer: 29.85 inHg , 1010.8 hPa
Clouds: Few Clouds
Visibility: 10 miles , 16 km
Cloud details: Few Clouds 6000 ft
2020/02/28 05:54 KDYL 280554Z AUTO 23007KT 10SM FEW060 M02/M12 A2985 RMK AO2 SLP114 T10171117 10000 21017 56001